createdAt,value
2022-11-14T00:00:50.432Z,101168.56
2022-11-14T00:10:52.289Z,101159.44
2022-11-14T00:20:54.061Z,101155.81
2022-11-14T00:30:55.363Z,101153.88
2022-11-14T00:40:56.694Z,101142.69
2022-11-14T00:50:58.076Z,101137.44
2022-11-14T01:00:59.649Z,101113.25
2022-11-14T01:11:01.090Z,101113.13
2022-11-14T01:21:06.470Z,101101.66
2022-11-14T01:31:12.233Z,101081.63
2022-11-14T01:41:15.856Z,101066.03
2022-11-14T01:51:31.409Z,101059.81
2022-11-14T02:01:35.894Z,101039.91
2022-11-14T02:11:42.212Z,101041.44
2022-11-14T02:21:43.570Z,101027.38
2022-11-14T02:31:44.904Z,101033.25
2022-11-14T02:41:46.297Z,101025.31
2022-11-14T02:51:47.638Z,101009.63
2022-11-14T03:01:49.045Z,100998.97
2022-11-14T03:11:50.389Z,100994.47
2022-11-14T03:21:51.889Z,100985.53
2022-11-14T03:31:53.350Z,100986.19
2022-11-14T03:41:54.671Z,100971.75
2022-11-14T03:51:55.996Z,100979.06
2022-11-14T04:01:57.319Z,100976.44
2022-11-14T04:11:58.663Z,100975.44
2022-11-14T04:22:00.024Z,100953.91
2022-11-14T04:32:01.367Z,100944.00
2022-11-14T04:42:02.714Z,100939.31
2022-11-14T04:52:04.230Z,100943.31
2022-11-14T05:02:05.587Z,100939.88
2022-11-14T05:12:07.025Z,100917.34
2022-11-14T05:22:08.356Z,100906.06
2022-11-14T05:32:13.699Z,100898.97
2022-11-14T05:42:17.517Z,100898.19
2022-11-14T05:52:18.849Z,100893.09
2022-11-14T06:02:20.331Z,100884.28
2022-11-14T06:12:21.656Z,100884.69
2022-11-14T06:22:23.055Z,100874.41
2022-11-14T06:32:24.391Z,100904.28
2022-11-14T06:42:25.708Z,100890.66
2022-11-14T06:52:27.255Z,100879.00
2022-11-14T07:02:28.589Z,100888.84
2022-11-14T07:12:29.974Z,100876.28
2022-11-14T07:22:31.327Z,100886.25
2022-11-14T07:32:32.703Z,100889.38
2022-11-14T07:42:34.063Z,100886.88
2022-11-14T07:52:35.454Z,100883.47
2022-11-14T08:02:36.818Z,100890.34
2022-11-14T08:12:39.368Z,100895.75
2022-11-14T08:22:40.680Z,100890.94
2022-11-14T08:32:41.991Z,100886.88
2022-11-14T08:42:43.344Z,100864.94
2022-11-14T08:52:50.915Z,100860.25
2022-11-14T09:02:52.368Z,100854.53
2022-11-14T09:13:00.128Z,100851.13
2022-11-14T09:23:02.373Z,100867.28
2022-11-14T09:33:11.121Z,100864.47
2022-11-14T09:43:50.746Z,100866.59
2022-11-14T09:53:56.075Z,100862.81
2022-11-14T10:04:09.664Z,100857.81
2022-11-14T10:14:37.931Z,100851.19
2022-11-14T10:24:51.353Z,100831.66
2022-11-14T10:35:01.627Z,100819.78
2022-11-14T10:45:10.691Z,100819.09
2022-11-14T10:55:17.609Z,100820.78
2022-11-14T11:05:22.263Z,100807.09
2022-11-14T11:15:30.253Z,100820.06
2022-11-14T11:25:33.513Z,100808.06
2022-11-14T11:35:35.405Z,100779.03
2022-11-14T11:45:37.776Z,100766.25
2022-11-14T11:56:01.052Z,100748.34
2022-11-14T12:06:13.874Z,100722.59
2022-11-14T12:16:25.828Z,100696.84
2022-11-14T12:27:06.423Z,100687.38
2022-11-14T12:37:14.955Z,100682.28
2022-11-14T12:47:22.165Z,100681.44
2022-11-14T12:57:47.665Z,100694.38
2022-11-14T13:07:56.408Z,100710.75
2022-11-14T13:18:31.809Z,100702.13
2022-11-14T13:28:35.972Z,100700.41
2022-11-14T13:38:59.952Z,100683.22
2022-11-14T13:49:19.998Z,100666.88
2022-11-14T13:59:49.191Z,100675.44
2022-11-14T14:10:29.866Z,100663.41
2022-11-14T14:20:33.906Z,100653.94
2022-11-14T14:30:35.294Z,100630.69
2022-11-14T14:40:40.067Z,100633.28
2022-11-14T14:50:48.049Z,100619.47
2022-11-14T15:01:20.419Z,100604.88
2022-11-14T15:11:22.465Z,100613.44
2022-11-14T15:21:29.505Z,100605.69
2022-11-14T15:31:30.923Z,100591.91
2022-11-14T15:41:33.503Z,100585.03
2022-11-14T15:51:48.291Z,100584.16
2022-11-14T16:01:54.916Z,100585.88
2022-11-14T16:11:56.419Z,100593.66
2022-11-14T16:22:02.859Z,100597.94
2022-11-14T16:32:04.563Z,100586.75
2022-11-14T16:42:07.155Z,100585.03
2022-11-14T16:52:10.734Z,100582.44
2022-11-14T17:02:15.485Z,100574.72
2022-11-14T17:12:16.873Z,100570.38
2022-11-14T17:22:19.681Z,100564.34
2022-11-14T17:32:20.998Z,100560.94
2022-11-14T17:42:22.399Z,100549.72
2022-11-14T17:52:23.744Z,100542.88
2022-11-14T18:02:25.105Z,100541.13
2022-11-14T18:12:26.476Z,100543.72
2022-11-14T18:22:28.362Z,100543.72
2022-11-14T18:32:29.761Z,100535.97
2022-11-14T18:42:31.088Z,100536.84
2022-11-14T18:52:32.501Z,100534.25
2022-11-14T19:02:33.952Z,100537.69
2022-11-14T19:12:35.375Z,100541.97
2022-11-14T19:22:36.689Z,100540.28
2022-11-14T19:32:38.026Z,100535.09
2022-11-14T19:42:39.387Z,100538.50
2022-11-14T19:52:40.707Z,100537.63
2022-11-14T20:02:45.867Z,100546.16
2022-11-14T20:12:47.205Z,100543.56
2022-11-14T20:22:48.624Z,100540.03
2022-11-14T20:32:49.961Z,100558.88
2022-11-14T20:42:51.329Z,100562.19
2022-11-14T20:52:52.678Z,100541.66
2022-11-14T21:02:54.777Z,100531.34
2022-11-14T21:13:22.263Z,100529.69
2022-11-14T21:23:23.608Z,100525.41
2022-11-14T21:33:29.543Z,100516.84
2022-11-14T21:43:31.871Z,100520.31
2022-11-14T21:53:34.738Z,100508.28
2022-11-14T22:03:55.672Z,100493.72
2022-11-14T22:13:58.120Z,100497.16
2022-11-14T22:23:59.596Z,100503.16
2022-11-14T22:34:00.988Z,100516.94
2022-11-14T22:44:02.380Z,100517.84
2022-11-14T22:54:03.879Z,100498.09
2022-11-14T23:04:05.370Z,100504.97
2022-11-14T23:14:06.777Z,100496.41
2022-11-14T23:24:13.510Z,100491.22
2022-11-14T23:34:14.847Z,100497.25
2022-11-14T23:44:16.215Z,100472.28
2022-11-14T23:54:17.547Z,100474.91
